sensor_id;sensor_type;location;lat;lon;timestamp;P1;durP1;ratioP1;P2;durP2;ratioP2
75550;SDS011;65071;53.082;18.218;2023-03-19T00:00:43;32.40;;;14.50;;
75550;SDS011;65071;53.082;18.218;2023-03-19T00:03:30;33.00;;;15.80;;
75550;SDS011;65071;53.082;18.218;2023-03-19T00:05:56;30.30;;;13.30;;
75550;SDS011;65071;53.082;18.218;2023-03-19T00:08:23;31.60;;;14.40;;
75550;SDS011;65071;53.082;18.218;2023-03-19T00:10:50;36.00;;;16.40;;
75550;SDS011;65071;53.082;18.218;2023-03-19T00:13:17;33.80;;;15.80;;
75550;SDS011;65071;53.082;18.218;2023-03-19T00:15:45;32.10;;;16.00;;
75550;SDS011;65071;53.082;18.218;2023-03-19T00:18:12;33.70;;;15.70;;
75550;SDS011;65071;53.082;18.218;2023-03-19T00:20:39;35.90;;;16.40;;
75550;SDS011;65071;53.082;18.218;2023-03-19T00:23:06;38.40;;;16.50;;
75550;SDS011;65071;53.082;18.218;2023-03-19T00:25:34;35.50;;;15.70;;
75550;SDS011;65071;53.082;18.218;2023-03-19T00:28:01;33.00;;;15.10;;
75550;SDS011;65071;53.082;18.218;2023-03-19T00:30:28;31.30;;;15.10;;
75550;SDS011;65071;53.082;18.218;2023-03-19T00:32:55;35.20;;;15.80;;
75550;SDS011;65071;53.082;18.218;2023-03-19T00:35:22;35.80;;;15.30;;
75550;SDS011;65071;53.082;18.218;2023-03-19T00:37:48;38.20;;;17.30;;
75550;SDS011;65071;53.082;18.218;2023-03-19T00:40:15;33.70;;;15.90;;
75550;SDS011;65071;53.082;18.218;2023-03-19T00:42:42;37.60;;;17.00;;
75550;SDS011;65071;53.082;18.218;2023-03-19T00:45:10;34.80;;;15.60;;
75550;SDS011;65071;53.082;18.218;2023-03-19T00:47:37;35.10;;;16.20;;
75550;SDS011;65071;53.082;18.218;2023-03-19T00:50:04;40.10;;;16.70;;
75550;SDS011;65071;53.082;18.218;2023-03-19T00:52:32;32.50;;;16.00;;
75550;SDS011;65071;53.082;18.218;2023-03-19T00:54:59;40.50;;;18.20;;
75550;SDS011;65071;53.082;18.218;2023-03-19T00:57:26;40.30;;;16.80;;
75550;SDS011;65071;53.082;18.218;2023-03-19T00:59:52;37.40;;;16.30;;
75550;SDS011;65071;53.082;18.218;2023-03-19T01:02:19;38.50;;;16.10;;
75550;SDS011;65071;53.082;18.218;2023-03-19T01:04:47;38.00;;;16.40;;
75550;SDS011;65071;53.082;18.218;2023-03-19T01:07:14;37.00;;;16.00;;
75550;SDS011;65071;53.082;18.218;2023-03-19T01:09:41;43.60;;;17.40;;
75550;SDS011;65071;53.082;18.218;2023-03-19T01:12:08;33.50;;;16.00;;
75550;SDS011;65071;53.082;18.218;2023-03-19T01:14:35;39.50;;;17.30;;
75550;SDS011;65071;53.082;18.218;2023-03-19T01:17:05;39.70;;;18.00;;
75550;SDS011;65071;53.082;18.218;2023-03-19T01:19:32;38.80;;;17.30;;
75550;SDS011;65071;53.082;18.218;2023-03-19T01:21:59;40.70;;;17.60;;
75550;SDS011;65071;53.082;18.218;2023-03-19T01:24:28;43.80;;;18.00;;
75550;SDS011;65071;53.082;18.218;2023-03-19T01:29:32;49.60;;;19.30;;
75550;SDS011;65071;53.082;18.218;2023-03-19T01:32:08;49.60;;;19.50;;
75550;SDS011;65071;53.082;18.218;2023-03-19T01:34:58;44.80;;;19.20;;
75550;SDS011;65071;53.082;18.218;2023-03-19T01:37:24;42.50;;;18.80;;
75550;SDS011;65071;53.082;18.218;2023-03-19T01:39:51;42.00;;;17.70;;
75550;SDS011;65071;53.082;18.218;2023-03-19T01:42:18;45.80;;;18.60;;
75550;SDS011;65071;53.082;18.218;2023-03-19T01:44:54;44.60;;;18.40;;
75550;SDS011;65071;53.082;18.218;2023-03-19T01:47:35;45.00;;;18.00;;
75550;SDS011;65071;53.082;18.218;2023-03-19T01:50:23;40.10;;;18.50;;
75550;SDS011;65071;53.082;18.218;2023-03-19T01:53:12;40.40;;;18.00;;
75550;SDS011;65071;53.082;18.218;2023-03-19T01:55:51;44.10;;;18.20;;
75550;SDS011;65071;53.082;18.218;2023-03-19T01:58:39;54.10;;;21.40;;
75550;SDS011;65071;53.082;18.218;2023-03-19T02:01:36;60.90;;;22.90;;
75550;SDS011;65071;53.082;18.218;2023-03-19T02:04:08;58.70;;;23.50;;
75550;SDS011;65071;53.082;18.218;2023-03-19T02:06:36;62.70;;;24.20;;
75550;SDS011;65071;53.082;18.218;2023-03-19T02:09:04;67.60;;;25.00;;
75550;SDS011;65071;53.082;18.218;2023-03-19T02:11:31;63.60;;;25.40;;
75550;SDS011;65071;53.082;18.218;2023-03-19T02:13:58;59.70;;;25.00;;
75550;SDS011;65071;53.082;18.218;2023-03-19T02:16:25;61.60;;;23.10;;
75550;SDS011;65071;53.082;18.218;2023-03-19T02:18:53;50.30;;;19.80;;
75550;SDS011;65071;53.082;18.218;2023-03-19T02:21:21;47.10;;;19.50;;
75550;SDS011;65071;53.082;18.218;2023-03-19T02:26:25;47.20;;;20.20;;
75550;SDS011;65071;53.082;18.218;2023-03-19T02:28:58;51.40;;;20.10;;
75550;SDS011;65071;53.082;18.218;2023-03-19T02:31:29;57.60;;;22.40;;
75550;SDS011;65071;53.082;18.218;2023-03-19T02:36:24;52.30;;;21.40;;
75550;SDS011;65071;53.082;18.218;2023-03-19T02:38:57;50.50;;;20.60;;
75550;SDS011;65071;53.082;18.218;2023-03-19T02:41:28;45.50;;;18.90;;
75550;SDS011;65071;53.082;18.218;2023-03-19T02:43:57;49.90;;;21.00;;
75550;SDS011;65071;53.082;18.218;2023-03-19T02:46:27;43.30;;;18.30;;
75550;SDS011;65071;53.082;18.218;2023-03-19T02:48:54;53.90;;;21.00;;
75550;SDS011;65071;53.082;18.218;2023-03-19T02:51:21;58.60;;;21.70;;
75550;SDS011;65071;53.082;18.218;2023-03-19T02:53:47;40.80;;;16.30;;
75550;SDS011;65071;53.082;18.218;2023-03-19T02:56:14;43.50;;;18.40;;
75550;SDS011;65071;53.082;18.218;2023-03-19T02:58:41;38.80;;;15.80;;
75550;SDS011;65071;53.082;18.218;2023-03-19T03:01:07;43.70;;;17.40;;
75550;SDS011;65071;53.082;18.218;2023-03-19T03:03:34;31.80;;;13.90;;
75550;SDS011;65071;53.082;18.218;2023-03-19T03:06:01;31.20;;;14.30;;
75550;SDS011;65071;53.082;18.218;2023-03-19T03:08:27;28.10;;;12.50;;
75550;SDS011;65071;53.082;18.218;2023-03-19T03:10:54;27.40;;;11.80;;
75550;SDS011;65071;53.082;18.218;2023-03-19T03:13:21;25.60;;;11.10;;
75550;SDS011;65071;53.082;18.218;2023-03-19T03:15:47;20.90;;;9.70;;
75550;SDS011;65071;53.082;18.218;2023-03-19T03:18:14;20.60;;;9.60;;
75550;SDS011;65071;53.082;18.218;2023-03-19T03:20:41;19.10;;;9.80;;
75550;SDS011;65071;53.082;18.218;2023-03-19T03:23:08;25.20;;;11.10;;
75550;SDS011;65071;53.082;18.218;2023-03-19T03:25:35;23.40;;;11.10;;
75550;SDS011;65071;53.082;18.218;2023-03-19T03:28:02;20.90;;;8.80;;
75550;SDS011;65071;53.082;18.218;2023-03-19T03:30:29;19.40;;;9.50;;
75550;SDS011;65071;53.082;18.218;2023-03-19T03:32:55;23.90;;;11.90;;
75550;SDS011;65071;53.082;18.218;2023-03-19T03:35:22;25.30;;;11.80;;
75550;SDS011;65071;53.082;18.218;2023-03-19T03:37:49;23.40;;;12.00;;
75550;SDS011;65071;53.082;18.218;2023-03-19T03:40:17;25.50;;;11.30;;
75550;SDS011;65071;53.082;18.218;2023-03-19T03:42:44;24.70;;;11.70;;
75550;SDS011;65071;53.082;18.218;2023-03-19T03:45:11;28.50;;;11.90;;
75550;SDS011;65071;53.082;18.218;2023-03-19T03:47:39;24.50;;;11.80;;
75550;SDS011;65071;53.082;18.218;2023-03-19T03:50:06;24.20;;;12.00;;
75550;SDS011;65071;53.082;18.218;2023-03-19T03:52:36;24.20;;;12.10;;
75550;SDS011;65071;53.082;18.218;2023-03-19T03:55:04;20.50;;;10.30;;
75550;SDS011;65071;53.082;18.218;2023-03-19T03:57:31;26.80;;;11.60;;
75550;SDS011;65071;53.082;18.218;2023-03-19T03:59:57;27.30;;;11.50;;
75550;SDS011;65071;53.082;18.218;2023-03-19T04:02:24;28.40;;;13.80;;
75550;SDS011;65071;53.082;18.218;2023-03-19T04:04:52;28.10;;;12.50;;
75550;SDS011;65071;53.082;18.218;2023-03-19T04:07:19;22.00;;;11.40;;
75550;SDS011;65071;53.082;18.218;2023-03-19T04:09:55;25.70;;;12.20;;
75550;SDS011;65071;53.082;18.218;2023-03-19T04:12:23;29.40;;;13.30;;
75550;SDS011;65071;53.082;18.218;2023-03-19T04:14:50;26.70;;;13.80;;
75550;SDS011;65071;53.082;18.218;2023-03-19T04:17:17;22.50;;;11.20;;
75550;SDS011;65071;53.082;18.218;2023-03-19T04:19:44;27.80;;;14.90;;
75550;SDS011;65071;53.082;18.218;2023-03-19T04:22:11;28.80;;;13.70;;
75550;SDS011;65071;53.082;18.218;2023-03-19T04:24:38;33.70;;;15.50;;
75550;SDS011;65071;53.082;18.218;2023-03-19T04:27:05;29.30;;;15.40;;
75550;SDS011;65071;53.082;18.218;2023-03-19T04:29:33;31.50;;;15.00;;
75550;SDS011;65071;53.082;18.218;2023-03-19T04:31:59;24.40;;;12.50;;
75550;SDS011;65071;53.082;18.218;2023-03-19T04:34:27;22.30;;;11.40;;
75550;SDS011;65071;53.082;18.218;2023-03-19T04:36:53;25.00;;;11.00;;
75550;SDS011;65071;53.082;18.218;2023-03-19T04:39:20;17.40;;;8.80;;
75550;SDS011;65071;53.082;18.218;2023-03-19T04:41:48;24.50;;;10.50;;
75550;SDS011;65071;53.082;18.218;2023-03-19T04:44:27;20.60;;;10.00;;
75550;SDS011;65071;53.082;18.218;2023-03-19T04:46:54;21.30;;;11.10;;
75550;SDS011;65071;53.082;18.218;2023-03-19T04:49:21;25.00;;;10.90;;
75550;SDS011;65071;53.082;18.218;2023-03-19T04:51:48;25.10;;;11.60;;
75550;SDS011;65071;53.082;18.218;2023-03-19T04:54:15;25.80;;;11.10;;
75550;SDS011;65071;53.082;18.218;2023-03-19T04:56:42;19.60;;;10.60;;
75550;SDS011;65071;53.082;18.218;2023-03-19T04:59:09;25.20;;;10.50;;
75550;SDS011;65071;53.082;18.218;2023-03-19T05:01:35;23.60;;;11.40;;
75550;SDS011;65071;53.082;18.218;2023-03-19T05:04:05;25.70;;;12.20;;
75550;SDS011;65071;53.082;18.218;2023-03-19T05:06:34;23.00;;;11.40;;
75550;SDS011;65071;53.082;18.218;2023-03-19T05:09:02;31.90;;;14.30;;
75550;SDS011;65071;53.082;18.218;2023-03-19T05:11:29;31.50;;;15.70;;
75550;SDS011;65071;53.082;18.218;2023-03-19T05:14:02;30.10;;;14.50;;
75550;SDS011;65071;53.082;18.218;2023-03-19T05:16:35;36.20;;;17.10;;
75550;SDS011;65071;53.082;18.218;2023-03-19T05:19:02;33.30;;;15.00;;
75550;SDS011;65071;53.082;18.218;2023-03-19T05:21:30;30.10;;;14.30;;
75550;SDS011;65071;53.082;18.218;2023-03-19T05:23:57;28.20;;;11.90;;
75550;SDS011;65071;53.082;18.218;2023-03-19T05:26:24;23.30;;;11.60;;
75550;SDS011;65071;53.082;18.218;2023-03-19T05:29:20;30.10;;;13.60;;
75550;SDS011;65071;53.082;18.218;2023-03-19T05:31:58;25.10;;;11.90;;
75550;SDS011;65071;53.082;18.218;2023-03-19T05:34:28;29.00;;;14.00;;
75550;SDS011;65071;53.082;18.218;2023-03-19T05:36:55;31.30;;;14.10;;
75550;SDS011;65071;53.082;18.218;2023-03-19T05:39:23;20.40;;;9.30;;
75550;SDS011;65071;53.082;18.218;2023-03-19T05:41:50;25.30;;;11.90;;
75550;SDS011;65071;53.082;18.218;2023-03-19T05:44:20;33.70;;;15.50;;
75550;SDS011;65071;53.082;18.218;2023-03-19T05:46:49;33.90;;;14.50;;
75550;SDS011;65071;53.082;18.218;2023-03-19T05:49:16;27.00;;;12.70;;
75550;SDS011;65071;53.082;18.218;2023-03-19T05:51:43;29.20;;;14.60;;
75550;SDS011;65071;53.082;18.218;2023-03-19T05:54:10;26.50;;;13.90;;
75550;SDS011;65071;53.082;18.218;2023-03-19T05:56:45;33.10;;;14.30;;
75550;SDS011;65071;53.082;18.218;2023-03-19T05:59:45;33.30;;;14.90;;
75550;SDS011;65071;53.082;18.218;2023-03-19T06:02:21;33.80;;;16.40;;
75550;SDS011;65071;53.082;18.218;2023-03-19T06:04:48;35.30;;;15.60;;
75550;SDS011;65071;53.082;18.218;2023-03-19T06:07:16;33.00;;;14.60;;
75550;SDS011;65071;53.082;18.218;2023-03-19T06:09:42;44.10;;;19.10;;
75550;SDS011;65071;53.082;18.218;2023-03-19T06:12:10;48.40;;;19.30;;
75550;SDS011;65071;53.082;18.218;2023-03-19T06:14:43;30.50;;;14.10;;
75550;SDS011;65071;53.082;18.218;2023-03-19T06:17:29;29.40;;;13.40;;
75550;SDS011;65071;53.082;18.218;2023-03-19T06:19:59;34.70;;;15.00;;
75550;SDS011;65071;53.082;18.218;2023-03-19T06:22:26;34.00;;;16.30;;
75550;SDS011;65071;53.082;18.218;2023-03-19T06:24:53;37.10;;;16.90;;
75550;SDS011;65071;53.082;18.218;2023-03-19T06:27:20;37.40;;;17.80;;
75550;SDS011;65071;53.082;18.218;2023-03-19T06:29:47;40.20;;;18.20;;
75550;SDS011;65071;53.082;18.218;2023-03-19T06:32:18;44.40;;;19.20;;
75550;SDS011;65071;53.082;18.218;2023-03-19T06:34:47;40.40;;;17.90;;
75550;SDS011;65071;53.082;18.218;2023-03-19T06:37:14;27.90;;;13.60;;
75550;SDS011;65071;53.082;18.218;2023-03-19T06:39:42;33.30;;;16.00;;
75550;SDS011;65071;53.082;18.218;2023-03-19T06:42:09;32.00;;;15.40;;
75550;SDS011;65071;53.082;18.218;2023-03-19T06:44:36;32.10;;;15.90;;
75550;SDS011;65071;53.082;18.218;2023-03-19T06:47:03;44.20;;;20.10;;
75550;SDS011;65071;53.082;18.218;2023-03-19T06:49:30;44.10;;;19.40;;
75550;SDS011;65071;53.082;18.218;2023-03-19T06:51:57;39.10;;;18.00;;
75550;SDS011;65071;53.082;18.218;2023-03-19T06:54:24;39.80;;;19.00;;
75550;SDS011;65071;53.082;18.218;2023-03-19T06:56:51;22.30;;;10.20;;
75550;SDS011;65071;53.082;18.218;2023-03-19T06:59:18;44.10;;;19.30;;
75550;SDS011;65071;53.082;18.218;2023-03-19T07:01:45;30.60;;;14.70;;
75550;SDS011;65071;53.082;18.218;2023-03-19T07:04:12;28.70;;;13.80;;
75550;SDS011;65071;53.082;18.218;2023-03-19T07:06:38;34.20;;;18.20;;
75550;SDS011;65071;53.082;18.218;2023-03-19T07:09:05;35.70;;;17.60;;
75550;SDS011;65071;53.082;18.218;2023-03-19T07:11:32;25.50;;;12.60;;
75550;SDS011;65071;53.082;18.218;2023-03-19T07:13:59;31.40;;;16.00;;
75550;SDS011;65071;53.082;18.218;2023-03-19T07:16:25;29.40;;;17.00;;
75550;SDS011;65071;53.082;18.218;2023-03-19T07:18:52;33.10;;;16.80;;
75550;SDS011;65071;53.082;18.218;2023-03-19T07:21:19;30.50;;;15.80;;
75550;SDS011;65071;53.082;18.218;2023-03-19T07:23:46;31.70;;;16.80;;
75550;SDS011;65071;53.082;18.218;2023-03-19T07:26:13;25.60;;;12.50;;
75550;SDS011;65071;53.082;18.218;2023-03-19T07:28:41;32.80;;;17.40;;
75550;SDS011;65071;53.082;18.218;2023-03-19T07:31:07;35.20;;;17.40;;
75550;SDS011;65071;53.082;18.218;2023-03-19T07:33:34;30.10;;;15.60;;
75550;SDS011;65071;53.082;18.218;2023-03-19T07:36:01;30.70;;;15.60;;
75550;SDS011;65071;53.082;18.218;2023-03-19T07:38:28;35.10;;;16.80;;
75550;SDS011;65071;53.082;18.218;2023-03-19T07:40:55;34.70;;;17.90;;
75550;SDS011;65071;53.082;18.218;2023-03-19T07:43:22;28.20;;;15.80;;
75550;SDS011;65071;53.082;18.218;2023-03-19T07:45:48;32.20;;;15.90;;
75550;SDS011;65071;53.082;18.218;2023-03-19T07:48:15;25.70;;;12.60;;
75550;SDS011;65071;53.082;18.218;2023-03-19T07:50:43;31.20;;;17.60;;
75550;SDS011;65071;53.082;18.218;2023-03-19T07:53:09;37.00;;;19.20;;
75550;SDS011;65071;53.082;18.218;2023-03-19T07:55:36;28.60;;;14.60;;
75550;SDS011;65071;53.082;18.218;2023-03-19T07:58:03;27.50;;;15.90;;
75550;SDS011;65071;53.082;18.218;2023-03-19T08:00:30;30.90;;;16.20;;
75550;SDS011;65071;53.082;18.218;2023-03-19T08:02:58;29.10;;;16.80;;
75550;SDS011;65071;53.082;18.218;2023-03-19T08:05:25;49.00;;;28.50;;
75550;SDS011;65071;53.082;18.218;2023-03-19T08:07:52;31.40;;;17.10;;
75550;SDS011;65071;53.082;18.218;2023-03-19T08:10:19;31.60;;;16.50;;
75550;SDS011;65071;53.082;18.218;2023-03-19T08:12:46;31.90;;;18.40;;
75550;SDS011;65071;53.082;18.218;2023-03-19T08:15:13;34.00;;;19.60;;
75550;SDS011;65071;53.082;18.218;2023-03-19T08:17:40;32.40;;;15.60;;
75550;SDS011;65071;53.082;18.218;2023-03-19T08:20:08;32.00;;;17.70;;
75550;SDS011;65071;53.082;18.218;2023-03-19T08:22:37;32.50;;;18.40;;
75550;SDS011;65071;53.082;18.218;2023-03-19T08:25:04;34.30;;;17.50;;
75550;SDS011;65071;53.082;18.218;2023-03-19T08:27:32;32.80;;;17.90;;
75550;SDS011;65071;53.082;18.218;2023-03-19T08:30:01;29.20;;;15.40;;
75550;SDS011;65071;53.082;18.218;2023-03-19T08:32:30;28.20;;;17.20;;
75550;SDS011;65071;53.082;18.218;2023-03-19T08:34:56;33.40;;;16.50;;
75550;SDS011;65071;53.082;18.218;2023-03-19T08:37:23;29.90;;;16.80;;
75550;SDS011;65071;53.082;18.218;2023-03-19T08:39:51;31.70;;;17.10;;
75550;SDS011;65071;53.082;18.218;2023-03-19T08:42:18;30.70;;;18.50;;
75550;SDS011;65071;53.082;18.218;2023-03-19T08:44:46;32.40;;;17.10;;
75550;SDS011;65071;53.082;18.218;2023-03-19T08:47:14;30.30;;;17.10;;
75550;SDS011;65071;53.082;18.218;2023-03-19T08:49:41;31.10;;;16.80;;
75550;SDS011;65071;53.082;18.218;2023-03-19T08:52:07;28.30;;;16.40;;
75550;SDS011;65071;53.082;18.218;2023-03-19T08:54:35;31.70;;;18.10;;
75550;SDS011;65071;53.082;18.218;2023-03-19T08:57:02;30.00;;;16.00;;
75550;SDS011;65071;53.082;18.218;2023-03-19T08:59:29;32.20;;;18.40;;
75550;SDS011;65071;53.082;18.218;2023-03-19T09:01:57;30.10;;;17.20;;
75550;SDS011;65071;53.082;18.218;2023-03-19T09:04:23;31.80;;;16.90;;
75550;SDS011;65071;53.082;18.218;2023-03-19T09:06:51;31.50;;;17.90;;
75550;SDS011;65071;53.082;18.218;2023-03-19T09:09:18;29.00;;;17.70;;
75550;SDS011;65071;53.082;18.218;2023-03-19T09:11:46;29.40;;;15.60;;
75550;SDS011;65071;53.082;18.218;2023-03-19T09:14:13;29.90;;;15.70;;
75550;SDS011;65071;53.082;18.218;2023-03-19T09:16:42;31.20;;;18.30;;
75550;SDS011;65071;53.082;18.218;2023-03-19T09:19:09;32.00;;;17.90;;
75550;SDS011;65071;53.082;18.218;2023-03-19T09:21:36;33.30;;;18.10;;
75550;SDS011;65071;53.082;18.218;2023-03-19T09:24:02;27.00;;;16.10;;
75550;SDS011;65071;53.082;18.218;2023-03-19T09:26:30;26.30;;;15.90;;
75550;SDS011;65071;53.082;18.218;2023-03-19T09:28:57;27.90;;;16.30;;
75550;SDS011;65071;53.082;18.218;2023-03-19T09:31:24;29.30;;;16.90;;
75550;SDS011;65071;53.082;18.218;2023-03-19T09:33:51;27.70;;;15.90;;
75550;SDS011;65071;53.082;18.218;2023-03-19T09:36:17;21.20;;;11.50;;
75550;SDS011;65071;53.082;18.218;2023-03-19T09:38:44;27.60;;;16.50;;
75550;SDS011;65071;53.082;18.218;2023-03-19T09:41:15;24.00;;;12.60;;
75550;SDS011;65071;53.082;18.218;2023-03-19T09:46:42;26.90;;;15.70;;
75550;SDS011;65071;53.082;18.218;2023-03-19T09:49:27;26.90;;;15.20;;
75550;SDS011;65071;53.082;18.218;2023-03-19T09:54:30;27.30;;;15.40;;
75550;SDS011;65071;53.082;18.218;2023-03-19T09:56:59;26.90;;;15.50;;
75550;SDS011;65071;53.082;18.218;2023-03-19T09:59:27;24.10;;;15.10;;
75550;SDS011;65071;53.082;18.218;2023-03-19T10:04:43;24.60;;;13.70;;
75550;SDS011;65071;53.082;18.218;2023-03-19T10:07:20;28.00;;;15.60;;
75550;SDS011;65071;53.082;18.218;2023-03-19T10:12:46;27.10;;;15.50;;
75550;SDS011;65071;53.082;18.218;2023-03-19T10:15:29;29.50;;;16.50;;
75550;SDS011;65071;53.082;18.218;2023-03-19T10:20:50;28.30;;;16.10;;
75550;SDS011;65071;53.082;18.218;2023-03-19T10:26:12;23.20;;;13.10;;
75550;SDS011;65071;53.082;18.218;2023-03-19T10:28:42;26.20;;;16.00;;
75550;SDS011;65071;53.082;18.218;2023-03-19T10:31:28;22.30;;;12.20;;
75550;SDS011;65071;53.082;18.218;2023-03-19T10:34:06;24.40;;;12.60;;
75550;SDS011;65071;53.082;18.218;2023-03-19T10:36:45;25.50;;;14.40;;
75550;SDS011;65071;53.082;18.218;2023-03-19T10:39:13;22.90;;;13.30;;
75550;SDS011;65071;53.082;18.218;2023-03-19T10:41:44;24.80;;;12.70;;
75550;SDS011;65071;53.082;18.218;2023-03-19T10:44:29;23.80;;;12.20;;
75550;SDS011;65071;53.082;18.218;2023-03-19T10:47:09;21.30;;;12.80;;
75550;SDS011;65071;53.082;18.218;2023-03-19T10:49:38;17.50;;;10.10;;
75550;SDS011;65071;53.082;18.218;2023-03-19T10:54:47;16.20;;;8.90;;
75550;SDS011;65071;53.082;18.218;2023-03-19T10:57:21;18.00;;;10.20;;
75550;SDS011;65071;53.082;18.218;2023-03-19T10:59:51;17.40;;;9.80;;
75550;SDS011;65071;53.082;18.218;2023-03-19T11:02:20;18.40;;;10.80;;
75550;SDS011;65071;53.082;18.218;2023-03-19T11:05:04;13.90;;;8.70;;
75550;SDS011;65071;53.082;18.218;2023-03-19T11:07:34;19.80;;;10.30;;
75550;SDS011;65071;53.082;18.218;2023-03-19T11:10:02;17.90;;;9.80;;
75550;SDS011;65071;53.082;18.218;2023-03-19T11:15:02;16.60;;;9.60;;
75550;SDS011;65071;53.082;18.218;2023-03-19T11:17:45;17.60;;;10.00;;
75550;SDS011;65071;53.082;18.218;2023-03-19T11:20:21;20.40;;;9.60;;
75550;SDS011;65071;53.082;18.218;2023-03-19T11:22:53;18.00;;;9.80;;
75550;SDS011;65071;53.082;18.218;2023-03-19T11:25:27;27.80;;;16.10;;
75550;SDS011;65071;53.082;18.218;2023-03-19T11:27:57;27.20;;;14.50;;
75550;SDS011;65071;53.082;18.218;2023-03-19T11:30:32;22.40;;;12.00;;
75550;SDS011;65071;53.082;18.218;2023-03-19T11:36:08;16.10;;;9.30;;
75550;SDS011;65071;53.082;18.218;2023-03-19T11:44:24;16.50;;;8.30;;
75550;SDS011;65071;53.082;18.218;2023-03-19T11:47:01;18.30;;;10.60;;
75550;SDS011;65071;53.082;18.218;2023-03-19T11:52:28;15.60;;;9.50;;
75550;SDS011;65071;53.082;18.218;2023-03-19T12:14:05;15.60;;;9.10;;
75550;SDS011;65071;53.082;18.218;2023-03-19T12:28:22;19.40;;;11.20;;
75550;SDS011;65071;53.082;18.218;2023-03-19T12:31:04;18.20;;;10.90;;
75550;SDS011;65071;53.082;18.218;2023-03-19T12:33:47;19.20;;;12.20;;
75550;SDS011;65071;53.082;18.218;2023-03-19T12:36:24;19.50;;;10.70;;
75550;SDS011;65071;53.082;18.218;2023-03-19T12:39:00;19.60;;;11.50;;
75550;SDS011;65071;53.082;18.218;2023-03-19T12:41:30;20.40;;;11.70;;
75550;SDS011;65071;53.082;18.218;2023-03-19T12:44:05;22.20;;;12.40;;
75550;SDS011;65071;53.082;18.218;2023-03-19T12:46:46;18.70;;;11.70;;
75550;SDS011;65071;53.082;18.218;2023-03-19T12:57:58;18.20;;;11.60;;
75550;SDS011;65071;53.082;18.218;2023-03-19T13:00:50;20.10;;;12.10;;
75550;SDS011;65071;53.082;18.218;2023-03-19T13:06:33;21.30;;;12.80;;
75550;SDS011;65071;53.082;18.218;2023-03-19T13:09:13;19.20;;;11.90;;
75550;SDS011;65071;53.082;18.218;2023-03-19T13:12:00;22.00;;;12.70;;
75550;SDS011;65071;53.082;18.218;2023-03-19T13:20:17;18.10;;;12.00;;
75550;SDS011;65071;53.082;18.218;2023-03-19T13:22:58;24.00;;;12.50;;
75550;SDS011;65071;53.082;18.218;2023-03-19T13:25:39;21.90;;;12.80;;
75550;SDS011;65071;53.082;18.218;2023-03-19T13:28:11;20.70;;;13.30;;
75550;SDS011;65071;53.082;18.218;2023-03-19T13:30:57;21.60;;;13.30;;
75550;SDS011;65071;53.082;18.218;2023-03-19T13:33:32;27.00;;;15.20;;
75550;SDS011;65071;53.082;18.218;2023-03-19T13:36:01;23.20;;;14.00;;
75550;SDS011;65071;53.082;18.218;2023-03-19T13:38:37;23.00;;;12.10;;
75550;SDS011;65071;53.082;18.218;2023-03-19T13:43:58;18.70;;;11.90;;
75550;SDS011;65071;53.082;18.218;2023-03-19T13:46:29;22.30;;;12.10;;
75550;SDS011;65071;53.082;18.218;2023-03-19T13:49:09;20.60;;;12.50;;
75550;SDS011;65071;53.082;18.218;2023-03-19T13:59:42;19.90;;;11.90;;
75550;SDS011;65071;53.082;18.218;2023-03-19T14:07:26;22.60;;;13.60;;
75550;SDS011;65071;53.082;18.218;2023-03-19T14:17:44;18.90;;;11.50;;
75550;SDS011;65071;53.082;18.218;2023-03-19T14:20:24;20.50;;;11.80;;
75550;SDS011;65071;53.082;18.218;2023-03-19T14:25:51;19.70;;;10.40;;
75550;SDS011;65071;53.082;18.218;2023-03-19T14:28:19;19.00;;;11.40;;
75550;SDS011;65071;53.082;18.218;2023-03-19T14:30:52;22.90;;;12.50;;
75550;SDS011;65071;53.082;18.218;2023-03-19T14:33:24;21.10;;;11.50;;
75550;SDS011;65071;53.082;18.218;2023-03-19T14:35:54;20.50;;;11.90;;
75550;SDS011;65071;53.082;18.218;2023-03-19T14:38:28;18.20;;;10.80;;
75550;SDS011;65071;53.082;18.218;2023-03-19T14:41:00;19.00;;;10.90;;
75550;SDS011;65071;53.082;18.218;2023-03-19T14:49:41;19.80;;;10.80;;
75550;SDS011;65071;53.082;18.218;2023-03-19T14:52:29;16.30;;;10.20;;
75550;SDS011;65071;53.082;18.218;2023-03-19T14:55:01;17.50;;;11.40;;
75550;SDS011;65071;53.082;18.218;2023-03-19T15:00:05;17.30;;;11.20;;
75550;SDS011;65071;53.082;18.218;2023-03-19T15:02:50;19.60;;;10.80;;
75550;SDS011;65071;53.082;18.218;2023-03-19T15:05:25;18.40;;;11.30;;
75550;SDS011;65071;53.082;18.218;2023-03-19T15:08:00;18.50;;;10.90;;
75550;SDS011;65071;53.082;18.218;2023-03-19T15:18:47;17.70;;;11.10;;
75550;SDS011;65071;53.082;18.218;2023-03-19T15:21:14;20.20;;;11.80;;
75550;SDS011;65071;53.082;18.218;2023-03-19T15:23:43;20.00;;;12.00;;
75550;SDS011;65071;53.082;18.218;2023-03-19T15:26:11;20.20;;;12.50;;
75550;SDS011;65071;53.082;18.218;2023-03-19T15:28:51;21.90;;;13.30;;
75550;SDS011;65071;53.082;18.218;2023-03-19T15:31:17;26.10;;;14.80;;
75550;SDS011;65071;53.082;18.218;2023-03-19T15:33:44;22.30;;;13.10;;
75550;SDS011;65071;53.082;18.218;2023-03-19T15:38:49;21.20;;;12.70;;
75550;SDS011;65071;53.082;18.218;2023-03-19T15:41:19;23.50;;;13.00;;
75550;SDS011;65071;53.082;18.218;2023-03-19T15:43:48;21.50;;;13.00;;
75550;SDS011;65071;53.082;18.218;2023-03-19T15:46:17;23.50;;;13.60;;
75550;SDS011;65071;53.082;18.218;2023-03-19T15:48:57;22.60;;;13.90;;
75550;SDS011;65071;53.082;18.218;2023-03-19T15:51:28;25.80;;;15.00;;
75550;SDS011;65071;53.082;18.218;2023-03-19T15:53:56;25.90;;;15.00;;
75550;SDS011;65071;53.082;18.218;2023-03-19T15:56:26;35.20;;;17.90;;
75550;SDS011;65071;53.082;18.218;2023-03-19T15:58:54;41.80;;;22.10;;
75550;SDS011;65071;53.082;18.218;2023-03-19T16:01:23;52.20;;;27.50;;
75550;SDS011;65071;53.082;18.218;2023-03-19T16:04:07;53.90;;;28.70;;
75550;SDS011;65071;53.082;18.218;2023-03-19T16:06:41;49.40;;;27.90;;
75550;SDS011;65071;53.082;18.218;2023-03-19T16:11:38;56.90;;;31.90;;
75550;SDS011;65071;53.082;18.218;2023-03-19T16:16:40;77.50;;;38.50;;
75550;SDS011;65071;53.082;18.218;2023-03-19T16:21:53;84.10;;;41.90;;
75550;SDS011;65071;53.082;18.218;2023-03-19T16:24:23;80.50;;;40.60;;
75550;SDS011;65071;53.082;18.218;2023-03-19T16:26:56;73.00;;;37.30;;
75550;SDS011;65071;53.082;18.218;2023-03-19T16:29:24;72.30;;;37.60;;
75550;SDS011;65071;53.082;18.218;2023-03-19T16:31:58;70.70;;;36.90;;
75550;SDS011;65071;53.082;18.218;2023-03-19T16:37:45;104.40;;;48.60;;
75550;SDS011;65071;53.082;18.218;2023-03-19T16:42:42;93.90;;;45.10;;
75550;SDS011;65071;53.082;18.218;2023-03-19T16:47:40;72.40;;;37.40;;
75550;SDS011;65071;53.082;18.218;2023-03-19T16:50:08;68.70;;;36.20;;
75550;SDS011;65071;53.082;18.218;2023-03-19T16:52:35;70.00;;;37.10;;
75550;SDS011;65071;53.082;18.218;2023-03-19T16:55:10;66.00;;;35.60;;
75550;SDS011;65071;53.082;18.218;2023-03-19T16:57:45;62.90;;;33.70;;